createdAt,value
2022-10-11T00:01:09.288Z,101059.44
2022-10-11T00:04:12.570Z,101059.56
2022-10-11T00:07:16.374Z,101054.66
2022-10-11T00:10:22.299Z,101055.91
2022-10-11T00:13:28.779Z,101050.63
2022-10-11T00:16:36.462Z,101055.25
2022-10-11T00:19:41.703Z,101057.44
2022-10-11T00:22:44.892Z,101051.00
2022-10-11T00:25:57.487Z,101046.31
2022-10-11T00:29:03.357Z,101040.59
2022-10-11T00:32:06.805Z,101043.00
2022-10-11T00:35:14.726Z,101044.41
2022-10-11T00:38:19.719Z,101049.47
2022-10-11T00:41:22.962Z,101050.87
2022-10-11T00:44:29.993Z,101044.09
2022-10-11T00:47:37.166Z,101051.16
2022-10-11T00:50:39.832Z,101052.44
2022-10-11T00:54:06.587Z,101054.84
2022-10-11T00:57:36.355Z,101048.16
2022-10-11T01:00:39.528Z,101049.53
2022-10-11T01:03:42.767Z,101041.59
2022-10-11T01:06:49.386Z,101031.47
2022-10-11T01:09:54.472Z,101028.47
2022-10-11T01:13:26.714Z,101028.91
2022-10-11T01:16:38.823Z,101024.44
2022-10-11T01:20:06.782Z,101034.44
2022-10-11T01:23:48.483Z,101026.94
2022-10-11T01:27:07.002Z,101039.00
2022-10-11T01:30:31.583Z,101034.31
2022-10-11T01:33:45.211Z,101027.53
2022-10-11T01:37:22.032Z,101033.28
2022-10-11T01:40:37.122Z,101022.72
2022-10-11T01:43:43.865Z,101023.75
2022-10-11T01:46:47.154Z,101025.56
2022-10-11T01:49:58.702Z,101025.78
2022-10-11T01:53:28.478Z,101030.06
2022-10-11T01:56:56.939Z,101022.00
2022-10-11T02:00:22.029Z,101019.56
2022-10-11T02:04:00.591Z,101024.84
2022-10-11T02:07:35.267Z,101015.00
2022-10-11T02:10:52.383Z,101013.16
2022-10-11T02:14:14.297Z,101008.69
2022-10-11T02:17:25.293Z,101007.88
2022-10-11T02:20:30.971Z,101016.06
2022-10-11T02:24:02.143Z,101018.25
2022-10-11T02:27:06.448Z,101000.88
2022-10-11T02:30:11.949Z,101003.53
2022-10-11T02:33:22.166Z,100998.84
2022-10-11T02:37:13.597Z,101007.31
2022-10-11T02:40:37.981Z,101011.38
2022-10-11T02:43:48.490Z,101017.72
2022-10-11T02:46:52.087Z,101011.13
2022-10-11T02:50:01.644Z,101020.91
2022-10-11T02:53:06.353Z,101017.72
2022-10-11T02:56:09.450Z,101024.13
2022-10-11T02:59:13.483Z,101025.19
2022-10-11T03:02:18.757Z,101032.50
2022-10-11T03:05:23.948Z,101034.47
2022-10-11T03:08:29.462Z,101027.69
2022-10-11T03:11:32.275Z,101030.09
2022-10-11T03:14:37.999Z,101028.41
2022-10-11T03:17:41.446Z,101031.97
2022-10-11T03:20:48.746Z,101028.56
2022-10-11T03:23:57.312Z,101021.88
2022-10-11T03:27:02.725Z,101023.81
2022-10-11T03:30:16.193Z,101020.81
2022-10-11T03:33:24.432Z,101019.19
2022-10-11T03:36:29.766Z,101026.66
2022-10-11T03:39:34.982Z,101030.53
2022-10-11T03:42:38.297Z,101022.94
2022-10-11T03:45:44.334Z,101022.56
2022-10-11T03:48:47.593Z,101030.34
2022-10-11T03:51:51.216Z,101027.72
2022-10-11T03:54:53.639Z,101025.06
2022-10-11T03:57:56.318Z,101031.16
2022-10-11T04:01:02.660Z,101042.25
2022-10-11T04:04:08.674Z,101034.69
2022-10-11T04:07:13.609Z,101034.78
2022-10-11T04:10:17.394Z,101040.00
2022-10-11T04:13:39.662Z,101040.41
2022-10-11T04:16:49.520Z,101039.75
2022-10-11T04:19:52.180Z,101041.00
2022-10-11T04:22:57.884Z,101037.66
2022-10-11T04:26:00.910Z,101047.88
2022-10-11T04:29:05.587Z,101043.47
2022-10-11T04:32:10.466Z,101044.72
2022-10-11T04:35:13.829Z,101043.87
2022-10-11T04:38:16.517Z,101040.81
2022-10-11T04:41:21.198Z,101045.00
2022-10-11T04:44:25.425Z,101043.03
2022-10-11T04:47:31.070Z,101043.47
2022-10-11T04:50:33.745Z,101043.81
2022-10-11T04:53:41.765Z,101042.53
2022-10-11T04:56:45.784Z,101047.84
2022-10-11T04:59:53.790Z,101047.16
2022-10-11T05:02:58.216Z,101045.19
2022-10-11T05:06:05.375Z,101053.13
2022-10-11T05:09:08.828Z,101057.94
2022-10-11T05:12:16.863Z,101048.72
2022-10-11T05:15:19.612Z,101049.06
2022-10-11T05:18:24.201Z,101044.78
2022-10-11T05:21:29.053Z,101045.78
2022-10-11T05:24:34.892Z,101055.13
2022-10-11T05:27:58.007Z,101056.69
2022-10-11T05:31:03.279Z,101062.00
2022-10-11T05:34:08.235Z,101061.88
2022-10-11T05:37:11.003Z,101060.09
2022-10-11T05:40:15.848Z,101058.81
2022-10-11T05:43:19.031Z,101060.31
2022-10-11T05:46:26.348Z,101065.78
2022-10-11T05:49:30.107Z,101081.03
2022-10-11T05:52:52.753Z,101076.00
2022-10-11T05:55:58.077Z,101082.16
2022-10-11T05:59:20.363Z,101080.09
2022-10-11T06:02:24.599Z,101084.25
2022-10-11T06:05:27.981Z,101083.47
2022-10-11T06:09:12.725Z,101090.34
2022-10-11T06:12:23.706Z,101104.56
2022-10-11T06:15:27.466Z,101099.19
2022-10-11T06:19:05.090Z,101104.84
2022-10-11T06:22:39.154Z,101099.44
2022-10-11T06:26:07.980Z,101108.13
2022-10-11T06:29:38.972Z,101111.00
2022-10-11T06:33:05.297Z,101106.06
2022-10-11T06:36:28.412Z,101109.81
2022-10-11T06:40:15.581Z,101101.28
2022-10-11T06:43:42.438Z,101110.41
2022-10-11T06:47:16.858Z,101109.09
2022-10-11T06:51:07.872Z,101115.88
2022-10-11T06:54:44.912Z,101115.59
2022-10-11T06:58:25.100Z,101108.28
2022-10-11T07:01:59.081Z,101108.37
2022-10-11T07:05:53.162Z,101114.84
2022-10-11T07:09:24.813Z,101114.63
2022-10-11T07:13:00.496Z,101117.88
2022-10-11T07:16:38.024Z,101121.84
2022-10-11T07:20:24.404Z,101126.88
2022-10-11T07:24:07.222Z,101129.94
2022-10-11T07:27:51.659Z,101121.66
2022-10-11T07:31:28.961Z,101125.66
2022-10-11T07:35:04.657Z,101120.84
2022-10-11T07:38:41.926Z,101138.47
2022-10-11T07:42:22.438Z,101132.88
2022-10-11T07:46:09.703Z,101127.50
2022-10-11T07:49:44.363Z,101125.09
2022-10-11T07:53:31.047Z,101122.09
2022-10-11T07:57:08.465Z,101133.03
2022-10-11T08:00:43.104Z,101128.78
2022-10-11T08:04:28.428Z,101126.19
2022-10-11T08:08:05.839Z,101130.44
2022-10-11T08:11:55.981Z,101127.78
2022-10-11T08:15:33.255Z,101131.16
2022-10-11T08:19:11.261Z,101139.94
2022-10-11T08:22:49.297Z,101137.03
2022-10-11T08:26:18.528Z,101135.44
2022-10-11T08:29:56.579Z,101135.22
2022-10-11T08:33:36.021Z,101144.88
2022-10-11T08:40:52.554Z,101135.28
2022-10-11T08:44:46.127Z,101133.66
2022-10-11T08:48:15.852Z,101128.84
2022-10-11T08:52:14.819Z,101141.63
2022-10-11T08:55:54.512Z,101136.28
2022-10-11T08:59:46.193Z,101144.03
2022-10-11T09:03:46.290Z,101138.72
2022-10-11T09:07:59.939Z,101137.56
2022-10-11T09:11:56.759Z,101137.59
2022-10-11T09:16:03.934Z,101143.50
2022-10-11T09:20:04.794Z,101141.78
2022-10-11T09:23:55.974Z,101136.22
2022-10-11T09:31:58.237Z,101141.66
2022-10-11T09:35:47.121Z,101133.75
2022-10-11T09:39:37.249Z,101139.78
2022-10-11T09:43:14.113Z,101144.84
2022-10-11T09:46:49.790Z,101140.34
2022-10-11T09:50:26.401Z,101146.81
2022-10-11T09:54:05.120Z,101135.56
2022-10-11T09:57:25.984Z,101135.63
2022-10-11T10:01:26.336Z,101137.84
2022-10-11T10:05:11.998Z,101141.56
2022-10-11T10:08:45.849Z,101137.38
2022-10-11T10:12:30.947Z,101144.22
2022-10-11T10:16:28.244Z,101137.16
2022-10-11T10:20:05.758Z,101135.84
2022-10-11T10:23:31.446Z,101131.09
2022-10-11T10:27:14.908Z,101130.25
2022-10-11T10:31:01.655Z,101123.72
2022-10-11T10:34:41.696Z,101125.84
2022-10-11T10:38:43.158Z,101128.75
2022-10-11T10:42:08.970Z,101121.19
2022-10-11T10:45:58.046Z,101125.16
2022-10-11T10:49:54.769Z,101115.59
2022-10-11T10:53:34.843Z,101116.25
2022-10-11T10:57:20.912Z,101114.69
2022-10-11T11:01:13.812Z,101123.94
2022-10-11T11:05:07.105Z,101114.66
2022-10-11T11:09:24.772Z,101109.94
2022-10-11T11:13:36.136Z,101113.88
2022-10-11T11:17:39.083Z,101105.06
2022-10-11T11:21:41.330Z,101109.78
2022-10-11T11:25:30.847Z,101106.97
2022-10-11T11:29:15.164Z,101109.47
2022-10-11T11:36:46.337Z,101105.41
2022-10-11T11:40:42.451Z,101102.06
2022-10-11T11:47:55.606Z,101093.66
2022-10-11T11:51:39.429Z,101095.03
2022-10-11T11:55:43.165Z,101089.00
2022-10-11T11:59:21.250Z,101092.09
2022-10-11T12:03:01.958Z,101086.00
2022-10-11T12:07:04.191Z,101090.97
2022-10-11T12:10:53.600Z,101094.22
2022-10-11T12:14:41.133Z,101081.59
2022-10-11T12:18:33.835Z,101075.28
2022-10-11T12:22:17.477Z,101083.50
2022-10-11T12:26:28.432Z,101081.34
2022-10-11T12:30:44.294Z,101072.31
2022-10-11T12:34:34.420Z,101068.03
2022-10-11T12:38:30.344Z,101071.34
2022-10-11T12:42:23.262Z,101071.56
2022-10-11T12:45:50.840Z,101067.41
2022-10-11T12:49:45.454Z,101060.72
2022-10-11T12:54:29.025Z,101062.62
2022-10-11T12:58:19.598Z,101060.41
2022-10-11T13:02:00.704Z,101060.00
2022-10-11T13:05:08.582Z,101064.97
2022-10-11T13:09:05.608Z,101054.91
2022-10-11T13:12:45.928Z,101053.16
2022-10-11T13:15:54.359Z,101061.06
2022-10-11T13:19:31.986Z,101057.09
2022-10-11T13:23:22.193Z,101050.91
2022-10-11T13:27:05.025Z,101057.91
2022-10-11T13:30:56.327Z,101051.50
2022-10-11T13:34:17.589Z,101054.03
2022-10-11T13:37:49.508Z,101057.34
2022-10-11T13:41:34.293Z,101052.69
2022-10-11T13:45:02.068Z,101060.44
2022-10-11T13:48:41.239Z,101051.03
2022-10-11T13:51:44.785Z,101062.25
2022-10-11T13:55:11.671Z,101061.94
2022-10-11T13:59:04.950Z,101063.91
2022-10-11T14:07:41.060Z,101060.84
2022-10-11T14:11:26.664Z,101063.28
2022-10-11T14:18:54.146Z,101059.47
2022-10-11T14:22:40.671Z,101061.03
2022-10-11T14:26:19.063Z,101067.78
2022-10-11T14:29:40.034Z,101059.59
2022-10-11T14:33:15.326Z,101067.22
2022-10-11T14:36:58.826Z,101060.19
2022-10-11T14:40:20.965Z,101065.91
2022-10-11T14:44:05.233Z,101065.53
2022-10-11T14:47:25.566Z,101065.16
2022-10-11T14:51:04.868Z,101069.25
2022-10-11T14:54:40.963Z,101064.00
2022-10-11T14:58:23.354Z,101062.53
2022-10-11T15:02:02.941Z,101064.94
2022-10-11T15:05:36.719Z,101068.34
2022-10-11T15:12:58.941Z,101065.09
2022-10-11T15:16:42.980Z,101064.41
2022-10-11T15:20:22.909Z,101075.69
2022-10-11T15:24:00.170Z,101079.56
2022-10-11T15:46:23.445Z,101088.63
2022-10-11T15:53:26.123Z,101088.56
2022-10-11T15:56:34.047Z,101086.78
2022-10-11T15:59:42.671Z,101098.41
2022-10-11T16:02:53.751Z,101093.69
2022-10-11T16:06:04.621Z,101112.25
2022-10-11T16:09:24.150Z,101109.59
2022-10-11T16:12:29.205Z,101103.22
2022-10-11T16:15:32.045Z,101100.03
2022-10-11T16:18:55.400Z,101118.47
2022-10-11T16:22:22.252Z,101116.56
2022-10-11T16:25:26.995Z,101114.87
2022-10-11T16:28:34.744Z,101123.38
2022-10-11T16:31:42.359Z,101128.91
2022-10-11T16:34:46.009Z,101129.91
2022-10-11T16:38:25.382Z,101132.25
2022-10-11T16:41:58.053Z,101132.44
2022-10-11T16:45:02.183Z,101143.03
2022-10-11T16:48:06.640Z,101145.34
2022-10-11T16:51:31.796Z,101150.56
2022-10-11T16:54:57.114Z,101144.66
2022-10-11T16:58:01.555Z,101146.69
2022-10-11T17:01:13.448Z,101149.31
2022-10-11T17:04:40.571Z,101153.84
2022-10-11T17:08:03.683Z,101153.34
2022-10-11T17:11:39.834Z,101155.87
2022-10-11T17:15:31.120Z,101159.16
2022-10-11T17:19:13.305Z,101163.00
2022-10-11T17:22:57.116Z,101169.94
2022-10-11T17:26:44.480Z,101170.53
2022-10-11T17:30:09.170Z,101172.59
2022-10-11T17:41:04.747Z,101186.13
2022-10-11T17:44:25.329Z,101177.81
2022-10-11T17:48:08.200Z,101184.91
2022-10-11T17:51:43.500Z,101188.88
2022-10-11T17:55:03.009Z,101184.31
2022-10-11T17:58:40.920Z,101188.34
2022-10-11T18:02:17.280Z,101186.63
2022-10-11T18:31:20.298Z,101198.03
2022-10-11T18:50:20.262Z,101210.19
2022-10-11T18:54:32.013Z,101199.09
2022-10-11T19:02:04.176Z,101201.41
2022-10-11T19:05:23.819Z,101198.94
2022-10-11T19:08:51.515Z,101195.56
2022-10-11T19:12:23.344Z,101198.34
2022-10-11T19:16:04.171Z,101196.78
2022-10-11T19:19:43.078Z,101201.22
2022-10-11T19:23:12.557Z,101196.53
2022-10-11T19:26:48.683Z,101198.00
2022-10-11T19:29:56.290Z,101201.06
2022-10-11T19:33:45.347Z,101203.03
2022-10-11T19:37:30.114Z,101208.75
2022-10-11T19:41:15.811Z,101201.41
2022-10-11T19:44:59.358Z,101214.72
2022-10-11T19:48:54.669Z,101210.13
2022-10-11T19:52:35.473Z,101206.44
2022-10-11T19:59:53.432Z,101207.50
2022-10-11T20:03:17.633Z,101212.09
2022-10-11T20:07:18.762Z,101220.31
2022-10-11T20:10:42.512Z,101214.22
2022-10-11T20:14:00.284Z,101217.19
2022-10-11T20:17:49.043Z,101218.56
2022-10-11T20:21:35.616Z,101218.09
2022-10-11T20:24:57.678Z,101224.09
2022-10-11T20:28:42.228Z,101218.44
2022-10-11T20:32:25.546Z,101220.47
2022-10-11T20:35:44.344Z,101219.84
2022-10-11T20:39:18.395Z,101220.56
2022-10-11T20:43:00.220Z,101226.28
2022-10-11T20:46:48.072Z,101227.78
2022-10-11T20:50:22.970Z,101230.75
2022-10-11T20:54:30.858Z,101225.19
2022-10-11T20:57:50.140Z,101229.84
2022-10-11T21:01:29.195Z,101221.47
2022-10-11T21:05:07.062Z,101232.72
2022-10-11T21:08:49.025Z,101230.47
2022-10-11T21:12:27.646Z,101228.16
2022-10-11T21:16:16.198Z,101226.22
2022-10-11T21:20:07.903Z,101221.53
2022-10-11T21:24:17.919Z,101226.97
2022-10-11T21:27:55.373Z,101231.25
2022-10-11T21:31:34.636Z,101234.63
2022-10-11T21:35:11.289Z,101236.22
2022-10-11T21:38:55.464Z,101231.03
2022-10-11T21:42:43.468Z,101240.41
2022-10-11T21:47:06.154Z,101240.84
2022-10-11T21:50:34.243Z,101241.56
2022-10-11T21:54:01.600Z,101231.31
2022-10-11T21:57:36.253Z,101238.13
2022-10-11T22:01:03.708Z,101231.69
2022-10-11T22:04:38.934Z,101239.75
2022-10-11T22:07:58.579Z,101239.03
2022-10-11T22:11:28.994Z,101240.09
2022-10-11T22:14:53.910Z,101231.94
2022-10-11T22:18:37.537Z,101231.81
2022-10-11T22:21:56.585Z,101233.75
2022-10-11T22:25:38.927Z,101232.03
2022-10-11T22:29:13.391Z,101233.97
2022-10-11T22:32:47.937Z,101235.91
2022-10-11T22:36:34.091Z,101237.41
2022-10-11T22:44:20.157Z,101238.22
2022-10-11T22:48:09.209Z,101245.44
2022-10-11T22:51:45.406Z,101235.06
2022-10-11T22:55:22.284Z,101235.53
2022-10-11T22:59:00.835Z,101234.72
2022-10-11T23:02:25.073Z,101231.41
2022-10-11T23:06:01.940Z,101241.97
2022-10-11T23:09:40.373Z,101241.97
2022-10-11T23:13:16.546Z,101239.69
2022-10-11T23:16:36.666Z,101244.06
2022-10-11T23:20:04.965Z,101249.28
2022-10-11T23:27:52.664Z,101252.03
2022-10-11T23:31:57.912Z,101250.59
2022-10-11T23:35:37.836Z,101256.00
2022-10-11T23:39:22.653Z,101251.13
2022-10-11T23:43:16.015Z,101251.94
2022-10-11T23:50:58.003Z,101260.59
2022-10-11T23:54:34.652Z,101261.59
2022-10-11T23:58:19.560Z,101256.78
